Time;durP1;ratioP1;P1;durP2;ratioP2;P2;SDS_P1;SDS_P2;PMS_P1;PMS_P2;Temp;Humidity;BMP_temperature;BMP_pressure;BME280_temperature;BME280_humidity;BME280_pressure;Samples;Min_cycle;Max_cycle;Signal;HPM_P1;HPM_P2
2023/05/02 00:02:04;;;;;;;3.58;3.05;;;16.40;94.10;;;;;;6126964;23;20005;-75
2023/05/02 00:04:30;;;;;;;3.72;2.72;;;16.40;94.20;;;;;;6126269;23;20009;-76
2023/05/02 00:06:55;;;;;;;5.38;2.90;;;16.30;94.20;;;;;;6127149;23;20417;-76
2023/05/02 00:09:21;;;;;;;2.45;2.25;;;16.40;94.60;;;;;;6126387;23;20053;-76
2023/05/02 00:11:47;;;;;;;2.60;2.40;;;16.30;94.30;;;;;;6126448;23;20013;-76
2023/05/02 00:14:12;;;;;;;2.25;2.05;;;16.30;94.30;;;;;;6125447;23;20081;-76
2023/05/02 00:16:38;;;;;;;2.40;1.98;;;16.30;94.30;;;;;;6126503;23;20002;-75
2023/05/02 00:19:04;;;;;;;2.53;2.33;;;16.30;94.30;;;;;;6100684;23;20009;-75
2023/05/02 00:21:31;;;;;;;2.90;2.30;;;16.30;94.30;;;;;;6127659;23;20002;-75
2023/05/02 00:23:58;;;;;;;4.00;2.35;;;16.40;94.20;;;;;;6100248;23;20148;-75
2023/05/02 00:26:23;;;;;;;2.30;2.10;;;16.40;94.20;;;;;;6126617;23;20005;-76
2023/05/02 00:28:49;;;;;;;2.28;2.08;;;16.40;94.20;;;;;;6126338;23;20076;-75
2023/05/02 00:31:15;;;;;;;3.33;2.25;;;16.50;94.10;;;;;;6099990;23;20353;-75
2023/05/02 00:33:41;;;;;;;3.22;2.38;;;16.50;94.00;;;;;;6126263;23;20137;-75
2023/05/02 00:36:18;;;;;;;2.83;2.17;;;16.50;94.10;;;;;;6126547;23;20089;-76
2023/05/02 00:38:44;;;;;;;3.13;2.28;;;16.50;94.10;;;;;;6125667;23;19998;-76
2023/05/02 00:41:10;;;;;;;3.30;2.50;;;16.50;94.20;;;;;;6125945;23;19998;-75
2023/05/02 00:43:38;;;;;;;2.53;2.00;;;16.40;94.20;;;;;;6126478;23;20009;-75
2023/05/02 00:46:05;;;;;;;1.80;1.70;;;16.40;94.10;;;;;;6126335;23;20091;-75
2023/05/02 00:48:31;;;;;;;2.38;2.17;;;16.40;94.10;;;;;;6126518;23;20006;-75
2023/05/02 00:50:57;;;;;;;2.97;1.98;;;16.30;94.20;;;;;;6126417;23;20072;-75
2023/05/02 00:53:23;;;;;;;6.28;2.38;;;16.30;94.20;;;;;;6125505;23;20009;-75
2023/05/02 00:55:49;;;;;;;2.92;2.53;;;16.30;94.30;;;;;;6126546;23;20417;-75
2023/05/02 00:58:18;;;;;;;2.20;1.80;;;16.30;94.30;;;;;;6100494;23;20325;-75
2023/05/02 01:00:43;;;;;;;1.50;1.40;;;16.30;94.20;;;;;;6126167;23;20024;-75
2023/05/02 01:03:25;;;;;;;2.17;1.98;;;16.30;94.20;;;;;;6126237;23;20457;-75
2023/05/02 01:06:07;;;;;;;2.13;1.92;;;16.30;94.20;;;;;;6127097;23;20001;-75
2023/05/02 01:08:45;;;;;;;2.45;1.67;;;16.20;94.20;;;;;;6126237;23;20006;-75
2023/05/02 01:11:18;;;;;;;2.65;1.98;;;16.20;94.20;;;;;;6100521;23;20034;-75
2023/05/02 01:13:46;;;;;;;3.63;2.42;;;16.20;94.20;;;;;;6125341;23;20006;-76
2023/05/02 01:16:15;;;;;;;2.60;2.00;;;16.20;94.20;;;;;;6099539;23;20376;-75
2023/05/02 01:18:43;;;;;;;2.05;1.50;;;16.20;94.20;;;;;;6126404;23;19998;-76
2023/05/02 01:21:11;;;;;;;1.80;1.70;;;16.10;94.20;;;;;;6126724;23;19998;-76
2023/05/02 01:24:09;;;;;;;2.35;1.60;;;16.10;94.20;;;;;;6099248;23;20028;-75
2023/05/02 01:26:54;;;;;;;2.15;1.83;;;16.10;94.20;;;;;;6125044;23;20006;-76
2023/05/02 01:29:22;;;;;;;2.15;1.95;;;16.20;94.30;;;;;;6126406;23;20376;-76
2023/05/02 01:31:50;;;;;;;1.98;1.58;;;16.20;94.10;;;;;;6099904;23;20009;-76
2023/05/02 01:34:19;;;;;;;1.50;1.40;;;16.10;94.00;;;;;;6125667;23;20101;-76
2023/05/02 01:36:49;;;;;;;1.80;1.60;;;16.10;94.00;;;;;;6125394;23;20458;-76
2023/05/02 01:39:24;;;;;;;2.40;1.50;;;16.20;94.00;;;;;;6126020;23;19998;-76
2023/05/02 01:41:52;;;;;;;1.80;1.60;;;16.20;93.90;;;;;;6125075;23;20021;-75
2023/05/02 01:44:20;;;;;;;1.73;1.60;;;16.20;94.00;;;;;;6125756;23;20091;-76
2023/05/02 01:46:47;;;;;;;1.52;1.42;;;16.30;94.10;;;;;;6125529;23;20002;-75
2023/05/02 01:49:14;;;;;;;2.05;1.25;;;16.30;94.00;;;;;;6100715;23;20068;-75
2023/05/02 01:51:45;;;;;;;1.40;1.30;;;16.20;93.90;;;;;;6099014;23;20010;-75
2023/05/02 01:54:13;;;;;;;1.55;1.40;;;16.20;94.00;;;;;;6125435;23;20053;-75
2023/05/02 01:56:40;;;;;;;0.85;0.85;;;16.10;94.00;;;;;;6125561;23;20089;-75
2023/05/02 01:59:11;;;;;;;2.55;1.17;;;16.10;94.10;;;;;;6126603;23;20357;-75
2023/05/02 02:01:39;;;;;;;4.70;1.45;;;16.00;94.10;;;;;;6125744;23;20056;-75
2023/05/02 02:04:07;;;;;;;2.22;1.42;;;16.00;94.20;;;;;;6125900;23;20009;-75
2023/05/02 02:06:34;;;;;;;0.90;0.90;;;16.00;94.20;;;;;;6124380;23;20013;-75
2023/05/02 02:09:00;;;;;;;1.20;1.10;;;16.00;94.10;;;;;;6126032;23;20013;-75
2023/05/02 02:11:33;;;;;;;2.08;1.38;;;16.00;94.10;;;;;;6124856;23;20006;-75
2023/05/02 02:14:14;;;;;;;1.60;1.50;;;15.90;94.10;;;;;;6125455;23;20002;-75
2023/05/02 02:16:40;;;;;;;;;;;16.00;94.10;;;;;;6126436;23;20010;-75
2023/05/02 02:19:09;;;;;;;1.77;1.10;;;16.00;94.10;;;;;;6125519;23;19993;-76
2023/05/02 02:21:37;;;;;;;0.95;0.85;;;16.00;94.10;;;;;;6125083;23;20322;-75
2023/05/02 02:24:05;;;;;;;1.30;1.20;;;16.00;94.10;;;;;;6126048;23;20421;-75
2023/05/02 02:26:31;;;;;;;1.83;1.45;;;16.00;94.30;;;;;;6125870;23;20444;-75
2023/05/02 02:28:59;;;;;;;2.45;1.33;;;16.00;94.30;;;;;;6125926;23;20006;-75
2023/05/02 02:31:30;;;;;;;1.60;1.50;;;16.10;94.30;;;;;;6124047;23;20005;-75
2023/05/02 02:33:56;;;;;;;1.40;1.30;;;16.10;94.30;;;;;;6125095;23;20085;-75
2023/05/02 02:36:35;;;;;;;1.50;1.30;;;16.10;94.30;;;;;;6125212;23;20037;-75
2023/05/02 02:39:19;;;;;;;1.35;1.25;;;16.10;94.30;;;;;;6126246;23;20373;-74
2023/05/02 02:42:18;;;;;;;1.10;1.00;;;16.10;94.30;;;;;;6099315;23;20420;-75
2023/05/02 02:44:59;;;;;;;0.82;0.82;;;16.10;94.40;;;;;;6069819;23;20013;-74
2023/05/02 02:48:08;;;;;;;1.10;1.00;;;16.00;94.30;;;;;;6125106;23;19999;-74
2023/05/02 02:50:58;;;;;;;1.65;1.30;;;16.00;94.30;;;;;;6083005;23;20010;-75
2023/05/02 02:53:26;;;;;;;;;;;16.00;94.40;;;;;;6126154;23;20439;-74
2023/05/02 02:56:00;;;;;;;1.13;1.02;;;16.00;94.40;;;;;;6125646;23;19912;-75
2023/05/02 02:58:50;;;;;;;2.08;1.52;;;15.90;94.40;;;;;;6125617;23;20511;-75
2023/05/02 03:01:21;;;;;;;1.27;1.17;;;15.90;94.50;;;;;;6125240;23;20279;-75
2023/05/02 03:03:48;;;;;;;1.33;1.00;;;15.80;94.60;;;;;;6126267;23;20083;-75
2023/05/02 03:06:15;;;;;;;1.00;0.90;;;15.80;94.70;;;;;;6126152;23;20497;-75
2023/05/02 03:08:43;;;;;;;2.47;1.40;;;15.80;94.70;;;;;;6125161;23;20006;-75
2023/05/02 03:11:09;;;;;;;1.10;1.00;;;15.80;94.70;;;;;;6124432;23;20006;-75
2023/05/02 03:13:35;;;;;;;2.03;1.10;;;15.70;94.70;;;;;;6125638;23;20014;-75
2023/05/02 03:16:28;;;;;;;1.60;1.33;;;15.70;94.80;;;;;;6125394;23;20009;-75
2023/05/02 03:18:53;;;;;;;1.60;1.35;;;15.80;94.80;;;;;;6126830;23;20405;-75
2023/05/02 03:21:19;;;;;;;2.13;1.73;;;15.80;94.80;;;;;;6125687;23;20002;-75
2023/05/02 03:23:45;;;;;;;2.30;1.52;;;15.80;94.80;;;;;;6127529;23;19998;-75
2023/05/02 03:26:11;;;;;;;1.38;1.25;;;15.70;94.80;;;;;;6126707;23;20332;-75
2023/05/02 03:28:36;;;;;;;1.63;1.50;;;15.70;94.80;;;;;;6127772;23;20006;-76
2023/05/02 03:31:02;;;;;;;1.50;1.40;;;15.70;94.80;;;;;;6126763;23;20021;-75
2023/05/02 03:33:28;;;;;;;1.92;1.67;;;15.70;94.80;;;;;;6126995;23;20021;-76
2023/05/02 03:35:53;;;;;;;4.32;1.23;;;15.80;94.80;;;;;;6127095;23;20476;-76
2023/05/02 03:38:19;;;;;;;2.08;1.90;;;15.80;94.80;;;;;;6101035;23;20097;-76
2023/05/02 03:40:45;;;;;;;1.70;1.60;;;15.80;94.80;;;;;;6126704;23;19998;-75
2023/05/02 03:43:11;;;;;;;1.98;1.77;;;15.80;94.70;;;;;;6126234;23;20007;-75
2023/05/02 03:45:37;;;;;;;1.98;1.73;;;15.80;94.80;;;;;;6126726;23;20406;-75
2023/05/02 03:48:02;;;;;;;1.50;1.40;;;15.90;94.80;;;;;;6127450;23;20009;-75
2023/05/02 03:50:28;;;;;;;1.85;1.75;;;15.90;94.70;;;;;;6126172;23;20014;-75
2023/05/02 03:52:54;;;;;;;2.25;2.05;;;15.80;94.80;;;;;;6127163;23;20116;-75
2023/05/02 03:55:20;;;;;;;2.10;1.88;;;15.80;94.70;;;;;;6127268;23;20002;-75
2023/05/02 03:57:46;;;;;;;3.50;1.70;;;15.80;94.80;;;;;;6126592;23;20002;-75
2023/05/02 04:00:12;;;;;;;1.90;1.80;;;15.80;94.70;;;;;;6126989;23;20006;-76
2023/05/02 04:02:38;;;;;;;2.45;1.50;;;15.90;94.70;;;;;;6125773;23;20090;-76
2023/05/02 04:05:04;;;;;;;1.60;1.50;;;15.90;94.80;;;;;;6127046;23;20366;-76
2023/05/02 04:07:30;;;;;;;2.65;1.95;;;15.90;94.80;;;;;;6099984;23;20050;-75
2023/05/02 04:09:56;;;;;;;1.75;1.65;;;15.90;94.80;;;;;;6126523;23;19998;-76
2023/05/02 04:12:21;;;;;;;1.70;1.60;;;16.00;94.80;;;;;;6126475;23;20340;-76
2023/05/02 04:14:47;;;;;;;1.70;1.60;;;15.90;94.70;;;;;;6126971;23;20002;-76
2023/05/02 04:17:14;;;;;;;2.00;1.73;;;15.90;94.70;;;;;;6126745;23;20006;-76
2023/05/02 04:19:40;;;;;;;2.63;1.90;;;15.90;94.70;;;;;;6127355;23;20005;-75
2023/05/02 04:22:05;;;;;;;2.17;1.70;;;16.00;94.70;;;;;;6126451;23;20002;-75
2023/05/02 04:24:31;;;;;;;2.95;1.83;;;16.00;94.70;;;;;;6126684;23;20417;-75
2023/05/02 04:26:57;;;;;;;2.35;1.73;;;16.00;94.70;;;;;;6126640;23;20472;-75
2023/05/02 04:29:22;;;;;;;2.38;2.05;;;16.00;94.60;;;;;;6125702;23;20028;-80
2023/05/02 04:31:49;;;;;;;2.33;1.80;;;15.90;94.60;;;;;;6125594;23;20034;-80
2023/05/02 04:34:15;;;;;;;1.63;1.52;;;16.00;94.80;;;;;;6126825;23;20014;-78
2023/05/02 04:36:41;;;;;;;2.05;1.83;;;15.90;94.50;;;;;;6126577;23;20006;-77
2023/05/02 04:39:07;;;;;;;2.25;1.65;;;15.90;94.60;;;;;;6126480;23;20529;-78
2023/05/02 04:41:33;;;;;;;2.10;1.75;;;16.00;94.50;;;;;;6124911;23;19998;-77
2023/05/02 04:43:58;;;;;;;1.70;1.60;;;15.90;94.50;;;;;;6125429;23;20002;-78
2023/05/02 04:46:24;;;;;;;2.00;1.80;;;16.00;94.40;;;;;;6125610;23;20002;-77
2023/05/02 04:48:50;;;;;;;1.75;1.40;;;16.00;94.40;;;;;;6124922;23;20594;-77
2023/05/02 04:51:16;;;;;;;2.42;1.50;;;16.00;94.40;;;;;;6099554;23;20010;-78
2023/05/02 04:53:41;;;;;;;1.77;1.67;;;16.00;94.40;;;;;;6125983;23;20002;-78
2023/05/02 04:56:07;;;;;;;1.42;1.33;;;16.00;94.50;;;;;;6126843;23;20005;-78
2023/05/02 04:58:34;;;;;;;2.22;1.90;;;16.00;94.40;;;;;;6100434;23;20006;-79
2023/05/02 05:01:00;;;;;;;1.90;1.45;;;16.00;94.30;;;;;;6125434;23;20002;-79
2023/05/02 05:03:28;;;;;;;1.67;1.58;;;16.00;94.40;;;;;;6126226;23;19998;-81
2023/05/02 05:05:54;;;;;;;3.60;1.55;;;16.10;94.40;;;;;;6126599;23;20002;-78
2023/05/02 05:08:20;;;;;;;1.98;1.75;;;16.10;94.40;;;;;;6125492;23;20013;-79
2023/05/02 05:10:45;;;;;;;2.35;1.83;;;16.00;94.40;;;;;;6126020;23;20006;-79
2023/05/02 05:13:12;;;;;;;2.78;1.75;;;16.00;94.40;;;;;;6124858;23;20002;-79
2023/05/02 05:15:39;;;;;;;1.50;1.30;;;16.00;94.50;;;;;;6125438;23;20006;-79
2023/05/02 05:18:05;;;;;;;1.80;1.60;;;16.10;94.50;;;;;;6099353;23;20009;-79
2023/05/02 05:20:32;;;;;;;1.40;1.30;;;16.00;94.50;;;;;;6126276;23;20471;-78
2023/05/02 05:22:58;;;;;;;2.20;1.58;;;16.00;94.50;;;;;;6125894;23;20088;-78
2023/05/02 05:25:26;;;;;;;1.60;1.50;;;16.00;94.50;;;;;;6126415;23;20023;-79
2023/05/02 05:27:52;;;;;;;4.00;1.77;;;16.00;94.40;;;;;;6126260;23;20057;-78
2023/05/02 05:30:18;;;;;;;2.75;1.35;;;16.00;94.40;;;;;;6126018;23;20010;-78
2023/05/02 05:32:43;;;;;;;1.40;1.30;;;16.00;94.40;;;;;;6098684;23;20015;-78
2023/05/02 05:35:09;;;;;;;1.30;1.20;;;16.10;94.50;;;;;;6125878;23;20045;-78
2023/05/02 05:37:38;;;;;;;1.65;1.48;;;16.10;94.40;;;;;;6126299;23;20005;-78
2023/05/02 05:40:06;;;;;;;2.00;1.80;;;16.10;94.40;;;;;;6125809;23;20005;-78
2023/05/02 05:42:31;;;;;;;2.05;1.77;;;16.10;94.50;;;;;;6099810;23;20028;-79
2023/05/02 05:44:57;;;;;;;1.50;1.40;;;16.10;94.30;;;;;;6125813;23;20373;-79
2023/05/02 05:47:23;;;;;;;2.20;1.60;;;16.10;94.30;;;;;;6126690;23;20029;-79
2023/05/02 05:49:54;;;;;;;2.55;1.50;;;16.10;94.30;;;;;;6126150;23;20010;-79
2023/05/02 05:52:20;;;;;;;1.67;1.40;;;16.10;94.30;;;;;;6125480;23;20029;-79
2023/05/02 05:54:46;;;;;;;1.42;1.33;;;16.10;94.30;;;;;;6125298;23;20002;-79
2023/05/02 05:57:12;;;;;;;1.63;1.27;;;16.10;94.30;;;;;;6125354;23;20002;-79
2023/05/02 05:59:38;;;;;;;2.40;1.75;;;16.10;94.40;;;;;;6099761;23;20016;-79
2023/05/02 06:02:04;;;;;;;2.60;2.08;;;16.10;94.40;;;;;;6125968;23;20024;-79
2023/05/02 06:04:30;;;;;;;2.22;1.63;;;16.00;94.40;;;;;;6124935;23;20057;-79
2023/05/02 06:06:56;;;;;;;5.82;1.67;;;16.10;94.40;;;;;;6125719;23;20425;-77
2023/05/02 06:09:22;;;;;;;1.60;1.38;;;16.10;94.50;;;;;;6126030;23;20063;-76
2023/05/02 06:11:47;;;;;;;1.38;1.20;;;16.10;94.50;;;;;;6125955;23;20006;-77
2023/05/02 06:14:13;;;;;;;3.63;1.70;;;16.20;94.50;;;;;;6125072;23;20379;-77
2023/05/02 06:16:39;;;;;;;1.67;1.23;;;16.20;94.50;;;;;;6125728;23;20013;-78
2023/05/02 06:19:05;;;;;;;2.13;1.38;;;16.20;94.40;;;;;;6100458;23;20010;-76
2023/05/02 06:21:31;;;;;;;2.35;1.40;;;16.20;94.40;;;;;;6126143;23;20002;-76
2023/05/02 06:23:57;;;;;;;1.35;1.25;;;16.30;94.40;;;;;;6128777;23;20033;-77
2023/05/02 06:26:22;;;;;;;1.33;1.23;;;16.30;94.30;;;;;;6125368;23;20056;-77
2023/05/02 06:28:48;;;;;;;1.58;1.30;;;16.30;94.40;;;;;;6099631;23;20013;-76
2023/05/02 06:31:15;;;;;;;1.38;1.27;;;16.30;94.30;;;;;;6125087;23;20009;-77
2023/05/02 06:33:41;;;;;;;1.50;1.30;;;16.40;94.40;;;;;;6123981;23;20068;-84
2023/05/02 06:36:07;;;;;;;1.52;1.38;;;16.40;94.30;;;;;;6125514;23;20016;-75
2023/05/02 06:38:32;;;;;;;1.38;1.27;;;16.40;94.30;;;;;;6125427;23;20080;-76
2023/05/02 06:40:58;;;;;;;1.63;1.52;;;16.40;94.30;;;;;;6125227;23;20010;-76
2023/05/02 06:43:24;;;;;;;1.40;1.15;;;16.40;94.20;;;;;;6124574;23;20022;-75
2023/05/02 06:45:53;;;;;;;1.30;1.10;;;16.40;94.20;;;;;;6124303;23;20006;-76
2023/05/02 06:48:20;;;;;;;2.08;1.20;;;16.40;94.60;;;;;;6125309;23;20084;-77
2023/05/02 06:50:46;;;;;;;2.67;1.55;;;16.40;94.30;;;;;;6127432;23;20002;-76
2023/05/02 06:53:11;;;;;;;1.92;1.67;;;16.40;94.40;;;;;;6101985;23;20020;-76
2023/05/02 06:55:37;;;;;;;2.30;1.73;;;16.40;94.40;;;;;;6126479;23;20176;-76
2023/05/02 06:58:03;;;;;;;3.00;1.40;;;16.40;94.40;;;;;;6130047;23;20002;-77
2023/05/02 07:00:28;;;;;;;1.40;1.30;;;16.40;94.50;;;;;;6130529;23;19998;-77
2023/05/02 07:02:55;;;;;;;1.60;1.40;;;16.30;94.40;;;;;;6127622;23;20002;-77
2023/05/02 07:05:21;;;;;;;2.15;1.38;;;16.30;94.40;;;;;;6130030;23;20093;-77
2023/05/02 07:07:46;;;;;;;2.05;1.67;;;16.30;94.40;;;;;;6128487;23;20025;-76
2023/05/02 07:10:12;;;;;;;1.38;1.27;;;16.30;94.60;;;;;;6127836;23;19998;-76
2023/05/02 07:12:38;;;;;;;1.50;1.40;;;16.30;94.50;;;;;;6127255;23;20002;-76
2023/05/02 07:15:07;;;;;;;2.55;1.38;;;16.30;94.60;;;;;;6128057;23;20001;-76
2023/05/02 07:17:32;;;;;;;1.92;1.30;;;16.30;94.60;;;;;;6128162;23;20076;-77
2023/05/02 07:19:58;;;;;;;1.30;1.20;;;16.30;94.60;;;;;;6127526;23;20045;-77
2023/05/02 07:22:24;;;;;;;1.52;1.40;;;16.30;94.60;;;;;;6127096;23;19998;-77
2023/05/02 07:24:57;;;;;;;1.48;1.30;;;16.30;94.60;;;;;;6127366;23;19994;-76
2023/05/02 07:27:23;;;;;;;1.48;1.38;;;16.30;94.60;;;;;;6128012;23;20044;-77
2023/05/02 07:29:49;;;;;;;4.88;1.48;;;16.30;94.70;;;;;;6127568;23;20087;-77
2023/05/02 07:32:14;;;;;;;1.35;1.20;;;16.40;94.90;;;;;;6127651;23;20002;-77
2023/05/02 07:34:40;;;;;;;1.30;1.15;;;16.40;94.70;;;;;;6126437;23;20028;-78
2023/05/02 07:37:07;;;;;;;2.60;1.88;;;16.40;94.80;;;;;;6127062;23;20005;-76
2023/05/02 07:39:33;;;;;;;1.55;1.35;;;16.40;94.60;;;;;;6127454;23;20394;-77
2023/05/02 07:41:59;;;;;;;1.17;1.08;;;16.40;94.50;;;;;;6129077;23;20005;-78
2023/05/02 07:44:25;;;;;;;1.63;1.30;;;16.40;94.60;;;;;;6101018;23;20336;-78
2023/05/02 07:46:51;;;;;;;1.52;1.10;;;16.50;94.60;;;;;;6126835;23;20033;-78
2023/05/02 07:49:18;;;;;;;2.20;1.20;;;16.50;94.60;;;;;;6127311;23;20078;-78
2023/05/02 07:51:44;;;;;;;1.38;1.27;;;16.40;94.60;;;;;;6126594;23;20002;-78
2023/05/02 07:54:20;;;;;;;1.65;1.30;;;16.50;94.50;;;;;;6126669;23;20444;-78
2023/05/02 07:56:46;;;;;;;1.73;1.20;;;16.50;94.50;;;;;;6127863;23;20002;-78
2023/05/02 07:59:12;;;;;;;5.53;1.55;;;16.50;94.40;;;;;;6127436;23;20029;-78
2023/05/02 08:01:40;;;;;;;1.23;1.13;;;16.40;94.50;;;;;;6126979;23;20005;-78
2023/05/02 08:04:06;;;;;;;3.78;1.50;;;16.40;94.50;;;;;;6125019;23;19998;-78
2023/05/02 08:06:32;;;;;;;1.63;1.42;;;16.50;94.60;;;;;;6126448;23;20002;-78
2023/05/02 08:08:58;;;;;;;1.48;1.35;;;16.50;94.70;;;;;;6125887;23;20346;-76
2023/05/02 08:11:24;;;;;;;0.98;0.93;;;16.60;94.70;;;;;;6099808;23;20002;-76
2023/05/02 08:13:51;;;;;;;1.90;1.25;;;16.60;94.60;;;;;;6125508;23;20009;-76
2023/05/02 08:16:17;;;;;;;2.08;1.33;;;16.60;94.40;;;;;;6127107;23;20002;-78
2023/05/02 08:18:43;;;;;;;1.55;1.20;;;16.60;94.40;;;;;;6126868;23;19998;-77
2023/05/02 08:21:09;;;;;;;1.35;1.25;;;16.70;94.40;;;;;;6127810;23;20142;-77
2023/05/02 08:23:36;;;;;;;1.00;0.90;;;16.70;94.50;;;;;;6126813;23;20002;-77
2023/05/02 08:26:02;;;;;;;1.15;1.00;;;16.70;94.40;;;;;;6126726;23;20022;-77
2023/05/02 08:28:28;;;;;;;2.42;1.35;;;16.70;94.30;;;;;;6127519;23;20010;-76
2023/05/02 08:30:54;;;;;;;1.33;1.23;;;16.70;94.40;;;;;;6101671;23;20370;-77
2023/05/02 08:33:20;;;;;;;1.40;1.30;;;16.80;94.40;;;;;;6121599;23;20010;-78
2023/05/02 08:35:46;;;;;;;1.27;1.17;;;16.80;94.30;;;;;;6125988;23;20006;-78
2023/05/02 08:38:11;;;;;;;1.10;1.00;;;16.80;94.30;;;;;;6100310;23;20009;-78
2023/05/02 08:40:38;;;;;;;2.28;1.30;;;16.90;94.30;;;;;;6126376;23;20006;-78
2023/05/02 08:43:07;;;;;;;1.35;1.20;;;16.90;94.40;;;;;;6125570;23;20029;-81
2023/05/02 08:45:43;;;;;;;1.10;1.00;;;16.90;94.40;;;;;;6125585;23;20033;-82
2023/05/02 08:48:11;;;;;;;1.95;1.40;;;17.00;94.40;;;;;;6124570;23;20010;-79
2023/05/02 08:50:44;;;;;;;2.67;1.10;;;17.00;94.50;;;;;;6125476;23;20010;-78
2023/05/02 08:53:11;;;;;;;1.90;1.30;;;17.00;94.30;;;;;;6126167;23;20006;-78
2023/05/02 08:55:41;;;;;;;3.10;1.13;;;17.10;94.30;;;;;;6099446;23;20013;-77
2023/05/02 08:58:10;;;;;;;;;;;17.10;94.00;;;;;;6099436;23;20012;-79
2023/05/02 09:00:41;;;;;;;2.00;1.30;;;17.10;94.00;;;;;;6122910;23;19901;-78
2023/05/02 09:03:25;;;;;;;2.25;1.23;;;17.00;94.00;;;;;;6126660;23;20026;-78
2023/05/02 09:06:04;;;;;;;3.28;1.25;;;17.00;94.10;;;;;;6125884;23;20006;-78
2023/05/02 09:08:30;;;;;;;3.53;1.15;;;17.10;94.40;;;;;;6126029;23;20005;-76
2023/05/02 09:10:57;;;;;;;1.42;1.30;;;17.10;94.20;;;;;;6123504;23;20041;-76
2023/05/02 09:13:45;;;;;;;2.40;1.50;;;17.10;94.20;;;;;;6097411;23;20057;-77
2023/05/02 09:16:16;;;;;;;1.33;1.15;;;17.10;94.30;;;;;;6099160;23;20010;-79
2023/05/02 09:18:47;;;;;;;1.20;1.10;;;17.20;94.30;;;;;;6125230;23;20005;-78
2023/05/02 09:21:15;;;;;;;1.33;1.05;;;17.20;94.10;;;;;;6125285;23;19998;-79
2023/05/02 09:23:47;;;;;;;1.20;1.00;;;17.20;94.10;;;;;;6099301;23;20085;-78
2023/05/02 09:26:25;;;;;;;1.60;1.05;;;17.20;94.10;;;;;;6125399;23;20006;-80
2023/05/02 09:28:54;;;;;;;1.10;0.95;;;17.20;94.10;;;;;;6124752;23;20075;-80
2023/05/02 09:31:26;;;;;;;1.15;0.95;;;17.20;94.10;;;;;;6122641;23;20006;-78
2023/05/02 09:33:53;;;;;;;1.70;1.10;;;17.30;94.20;;;;;;6125543;23;20100;-78
2023/05/02 09:36:20;;;;;;;1.20;1.00;;;17.20;94.10;;;;;;6125490;23;20041;-78
2023/05/02 09:38:48;;;;;;;1.52;1.20;;;17.30;94.20;;;;;;6100497;23;20413;-78
2023/05/02 09:41:16;;;;;;;1.30;1.20;;;17.30;94.30;;;;;;6099247;23;20305;-78
2023/05/02 09:43:42;;;;;;;2.00;1.38;;;17.30;94.30;;;;;;6125184;23;20012;-80
2023/05/02 09:46:10;;;;;;;3.65;1.17;;;17.30;94.30;;;;;;6124933;23;20080;-80
2023/05/02 09:48:53;;;;;;;2.85;1.20;;;17.30;94.20;;;;;;6099145;23;20299;-80
2023/05/02 09:51:21;;;;;;;1.10;1.00;;;17.30;94.20;;;;;;6099068;23;20014;-79
2023/05/02 09:53:47;;;;;;;2.38;1.25;;;17.30;94.20;;;;;;6126031;23;20428;-80
2023/05/02 09:56:13;;;;;;;1.30;1.20;;;17.30;94.10;;;;;;6125403;23;20006;-79
2023/05/02 09:58:38;;;;;;;1.50;1.00;;;17.30;94.10;;;;;;6123074;23;20013;-78
2023/05/02 10:01:04;;;;;;;3.50;1.30;;;17.30;94.10;;;;;;6125666;23;20013;-78
2023/05/02 10:03:33;;;;;;;1.20;1.10;;;17.30;94.10;;;;;;6099709;23;20013;-79
2023/05/02 10:06:00;;;;;;;1.55;1.45;;;17.30;94.20;;;;;;6125711;23;20005;-79
2023/05/02 10:08:27;;;;;;;1.55;1.45;;;17.30;94.10;;;;;;6125693;23;20084;-78
2023/05/02 10:10:58;;;;;;;1.70;1.40;;;17.30;94.10;;;;;;6124239;23;20671;-77
2023/05/02 10:13:30;;;;;;;1.25;0.90;;;17.30;94.10;;;;;;6099088;23;20037;-77
2023/05/02 10:16:01;;;;;;;2.90;1.33;;;17.30;94.10;;;;;;6124384;23;20013;-77
2023/05/02 10:18:55;;;;;;;1.35;1.20;;;17.30;94.10;;;;;;6124906;23;20077;-77
2023/05/02 10:21:28;;;;;;;1.02;0.90;;;17.30;94.20;;;;;;6125948;23;19998;-77
2023/05/02 10:23:54;;;;;;;1.23;1.10;;;17.30;94.10;;;;;;6124986;23;20025;-78
2023/05/02 10:26:22;;;;;;;2.35;1.20;;;17.30;94.00;;;;;;6125283;23;20009;-77
2023/05/02 10:28:51;;;;;;;2.58;1.20;;;17.40;94.00;;;;;;6126936;23;20089;-77
2023/05/02 10:31:18;;;;;;;1.42;1.10;;;17.40;94.00;;;;;;6127976;23;20005;-77
2023/05/02 10:33:45;;;;;;;1.40;0.98;;;17.40;94.00;;;;;;6127787;23;20018;-77
2023/05/02 10:36:12;;;;;;;1.52;1.10;;;17.50;94.20;;;;;;6100717;23;20010;-77
2023/05/02 10:38:38;;;;;;;1.58;1.30;;;17.50;94.00;;;;;;6127289;23;20074;-77
2023/05/02 10:41:15;;;;;;;2.55;1.10;;;17.50;93.90;;;;;;6127875;23;20002;-78
2023/05/02 10:43:44;;;;;;;1.50;0.90;;;17.50;93.60;;;;;;6127822;23;20447;-78
2023/05/02 10:46:33;;;;;;;1.30;1.20;;;17.40;93.70;;;;;;6127453;23;20017;-78
2023/05/02 10:49:04;;;;;;;0.52;0.50;;;17.40;93.50;;;;;;6127123;23;20081;-77
2023/05/02 10:51:31;;;;;;;1.98;1.00;;;17.40;93.40;;;;;;6127918;23;20444;-78
2023/05/02 10:54:23;;;;;;;1.20;0.70;;;17.40;93.40;;;;;;6127221;23;20006;-79
2023/05/02 10:57:02;;;;;;;1.25;0.70;;;17.40;93.40;;;;;;6094357;23;20010;-80
2023/05/02 10:59:34;;;;;;;1.17;0.82;;;17.40;93.60;;;;;;6124076;23;20005;-79
2023/05/02 11:02:00;;;;;;;1.10;0.80;;;17.40;93.50;;;;;;6125849;23;20013;-80
2023/05/02 11:05:02;;;;;;;0.85;0.80;;;17.50;93.50;;;;;;6126879;23;20001;-78
2023/05/02 11:07:30;;;;;;;1.30;1.10;;;17.50;93.70;;;;;;6127139;23;20013;-77
2023/05/02 11:10:15;;;;;;;1.40;0.95;;;17.50;93.50;;;;;;6100790;23;20644;-77
2023/05/02 11:12:52;;;;;;;1.17;0.90;;;17.50;93.40;;;;;;6101819;23;20040;-77
2023/05/02 11:15:26;;;;;;;0.50;0.50;;;17.50;93.60;;;;;;6126823;23;20021;-77
2023/05/02 11:18:00;;;;;;;0.93;0.60;;;17.50;93.50;;;;;;6127226;23;19999;-77
2023/05/02 11:20:26;;;;;;;1.27;0.75;;;17.50;93.50;;;;;;6127484;23;20002;-77
2023/05/02 11:22:53;;;;;;;0.93;0.70;;;17.50;93.50;;;;;;6127067;23;20002;-77
2023/05/02 11:25:35;;;;;;;0.77;0.70;;;17.60;93.60;;;;;;6127225;23;20080;-77
2023/05/02 11:28:02;;;;;;;8.73;0.70;;;17.60;93.50;;;;;;6102142;23;20009;-77
2023/05/02 11:30:42;;;;;;;1.17;0.75;;;17.60;93.50;;;;;;6127110;23;20005;-77
2023/05/02 11:33:08;;;;;;;1.45;0.73;;;17.60;93.60;;;;;;6126756;23;20417;-78
2023/05/02 11:35:35;;;;;;;1.48;0.80;;;17.70;93.60;;;;;;6127123;23;20004;-78
2023/05/02 11:38:03;;;;;;;1.52;0.77;;;17.70;93.60;;;;;;6126793;23;20092;-82
2023/05/02 11:40:29;;;;;;;3.10;0.90;;;17.70;93.40;;;;;;6125837;23;20005;-79
2023/05/02 11:42:56;;;;;;;1.95;0.80;;;17.70;93.40;;;;;;6126412;23;20036;-80
2023/05/02 11:45:35;;;;;;;1.15;0.60;;;17.80;93.50;;;;;;6127506;23;20002;-79
2023/05/02 11:48:03;;;;;;;0.50;0.50;;;17.80;93.20;;;;;;6129052;23;20009;-78
2023/05/02 11:50:29;;;;;;;0.73;0.55;;;17.80;93.40;;;;;;6128297;23;20006;-78
2023/05/02 11:52:56;;;;;;;1.77;0.85;;;17.80;93.20;;;;;;6128350;23;20005;-79
2023/05/02 11:55:21;;;;;;;1.80;0.80;;;17.80;93.30;;;;;;6126434;23;20002;-77
2023/05/02 11:57:47;;;;;;;2.25;0.50;;;17.80;93.20;;;;;;6126006;23;20134;-77
2023/05/02 12:00:14;;;;;;;1.95;0.60;;;17.90;93.30;;;;;;6100135;23;20002;-78
2023/05/02 12:02:44;;;;;;;0.80;0.70;;;17.80;93.30;;;;;;6127085;23;20074;-77
2023/05/02 12:05:12;;;;;;;2.95;0.80;;;17.90;93.40;;;;;;6126694;23;20446;-78
2023/05/02 12:07:43;;;;;;;0.65;0.55;;;17.90;93.50;;;;;;6126882;23;20036;-78
2023/05/02 12:10:11;;;;;;;0.60;0.60;;;17.90;93.20;;;;;;6126437;23;20061;-77
2023/05/02 12:12:38;;;;;;;0.75;0.52;;;17.90;93.10;;;;;;6101652;23;20089;-78
2023/05/02 12:15:08;;;;;;;2.15;0.68;;;17.90;93.20;;;;;;6100861;23;20050;-78
2023/05/02 12:17:36;;;;;;;;;;;17.90;93.20;;;;;;6101047;23;20006;-78
2023/05/02 12:20:03;;;;;;;1.35;0.70;;;17.90;93.20;;;;;;6126684;23;19901;-77
2023/05/02 12:22:30;;;;;;;0.60;0.52;;;17.90;93.20;;;;;;6126084;23;20013;-78
2023/05/02 12:24:55;;;;;;;0.50;0.50;;;17.90;93.10;;;;;;6125893;23;20002;-77
2023/05/02 12:27:21;;;;;;;3.00;0.80;;;17.90;93.10;;;;;;6126327;23;20009;-78
2023/05/02 12:29:48;;;;;;;1.63;0.70;;;17.80;93.20;;;;;;6126528;23;20009;-78
2023/05/02 12:32:17;;;;;;;0.77;0.40;;;17.80;93.00;;;;;;6126687;23;20349;-78
2023/05/02 12:34:44;;;;;;;1.38;0.65;;;17.80;93.00;;;;;;6126119;23;20453;-78
2023/05/02 12:37:10;;;;;;;1.50;0.80;;;17.80;93.40;;;;;;6100847;23;20010;-78
2023/05/02 12:39:41;;;;;;;0.75;0.63;;;17.70;93.10;;;;;;6126188;23;20029;-78
2023/05/02 12:42:13;;;;;;;1.05;0.50;;;17.70;93.20;;;;;;6100085;23;20012;-78
2023/05/02 12:44:44;;;;;;;0.70;0.63;;;17.70;93.20;;;;;;6125788;23;20006;-78
2023/05/02 12:47:11;;;;;;;1.52;0.57;;;17.60;93.10;;;;;;6126212;23;20436;-78
2023/05/02 12:49:53;;;;;;;0.93;0.50;;;17.60;93.10;;;;;;6125594;23;20460;-78
2023/05/02 12:52:20;;;;;;;2.97;0.60;;;17.60;93.10;;;;;;6126537;23;20056;-79
2023/05/02 12:54:47;;;;;;;0.70;0.60;;;17.60;93.20;;;;;;6125493;23;20069;-76
2023/05/02 12:57:25;;;;;;;0.65;0.50;;;17.60;93.30;;;;;;6126106;23;20016;-76